Narberth, United Kingdom
Current Conditions -  °F | °C
As of 2:50 AM on Wednesday 22 Oct 2014 (Local Time) from EGOP Reporting Station
Broken Clouds Broken Clouds  
Wind Chill: 50°   Ceiling: 5000
Heat Index: 50°   Visibility: 6mi
Dew Point: 43°   Wind: 18mph
Humidity: 76%   Direction: 280°W
Pressure: 30.33"   Gusts: NA
Location:  51.8°N, 4.74°W
Report Text: EGOP 220150Z AUTO 28016KT 9999 // BKN050/// 10/06 Q1027
Loading
Personal Weather Stations






























Interactive Weather Map
Tropical Storm Tracking
New forecast layout! Learn more

10-Day Weather Forecast

Advertisements
Track Severe Weather on mobile